Time;durP1;ratioP1;P1;durP2;ratioP2;P2;SDS_P1;SDS_P2;PMS_P1;PMS_P2;Temp;Humidity;BMP_temperature;BMP_pressure;BME280_temperature;BME280_humidity;BME280_pressure;Samples;Min_cycle;Max_cycle;Signal;HPM_P1;HPM_P2
2022/06/28 00:00:36;;;;;;;16.50;10.57;;;;;;;23.59;61.75;99727.31;5019618;28;20046;-49
2022/06/28 00:03:02;;;;;;;11.73;10.02;;;;;;;23.54;61.87;99727.72;5020493;28;20073;-53
2022/06/28 00:05:28;;;;;;;11.40;10.20;;;;;;;23.52;61.96;99734.97;5021492;28;20075;-50
2022/06/28 00:07:54;;;;;;;15.70;10.30;;;;;;;23.53;62.19;99739.31;5026384;28;20045;-50
2022/06/28 00:10:20;;;;;;;13.20;9.90;;;;;;;23.47;62.18;99726.56;5029032;28;20045;-51
2022/06/28 00:12:46;;;;;;;15.02;10.50;;;;;;;23.55;62.44;99739.19;5027278;28;20066;-49
2022/06/28 00:17:58;;;;;;;15.48;9.93;;;;;;;23.55;62.48;99737.34;5026456;28;20044;-51
2022/06/28 00:20:24;;;;;;;15.02;10.02;;;;;;;23.58;62.56;99747.72;5012740;28;20425;-50
2022/06/28 00:22:49;;;;;;;14.75;10.10;;;;;;;23.58;62.47;99754.84;5026122;28;20041;-53
2022/06/28 00:25:15;;;;;;;11.07;9.98;;;;;;;23.48;62.49;99738.88;5031454;28;20092;-49
2022/06/28 00:27:41;;;;;;;14.38;9.98;;;;;;;23.53;62.64;99749.09;5022424;28;20045;-53
2022/06/28 00:30:09;;;;;;;14.25;10.63;;;;;;;23.42;62.78;99742.03;5012047;28;20475;-50
2022/06/28 00:32:35;;;;;;;11.90;9.57;;;;;;;23.45;62.95;99755.03;5021021;28;20103;-53
2022/06/28 00:35:02;;;;;;;11.25;10.13;;;;;;;23.34;63.17;99743.66;5028262;28;20513;-49
2022/06/28 00:37:29;;;;;;;12.88;10.60;;;;;;;23.36;63.39;99754.97;5010227;28;20030;-49
2022/06/28 00:39:55;;;;;;;10.93;9.80;;;;;;;23.23;63.58;99748.09;5015732;28;20574;-50
2022/06/28 00:42:21;;;;;;;13.35;10.23;;;;;;;23.28;63.83;99760.97;5029534;28;20042;-54
2022/06/28 00:44:47;;;;;;;11.00;9.82;;;;;;;23.25;63.95;99761.19;5030076;28;20045;-51
2022/06/28 00:47:13;;;;;;;12.45;10.57;;;;;;;23.19;63.98;99757.25;5046628;28;20099;-52
2022/06/28 00:49:40;;;;;;;12.80;10.88;;;;;;;23.16;64.27;99757.53;5012456;28;20056;-52
2022/06/28 00:52:07;;;;;;;11.43;10.35;;;;;;;23.13;64.50;99759.63;5012489;28;20049;-53
2022/06/28 00:54:33;;;;;;;12.70;9.95;;;;;;;23.09;64.67;99759.00;5028141;28;20394;-52
2022/06/28 00:56:59;;;;;;;11.00;9.75;;;;;;;23.07;64.80;99760.13;5061677;28;20067;-52
2022/06/28 00:59:25;;;;;;;11.07;9.95;;;;;;;23.02;64.69;99759.69;5010225;28;20045;-52
2022/06/28 01:01:51;;;;;;;16.30;10.43;;;;;;;22.99;65.14;99771.38;5019555;28;20098;-52
2022/06/28 01:04:17;;;;;;;17.40;10.80;;;;;;;22.89;65.27;99751.91;5012695;28;20044;-51
2022/06/28 01:06:44;;;;;;;14.45;10.18;;;;;;;22.95;65.26;99766.47;5030788;28;20168;-50
2022/06/28 01:09:12;;;;;;;14.40;10.85;;;;;;;22.93;65.44;99771.03;5029872;28;20432;-52
2022/06/28 01:11:39;;;;;;;11.20;10.05;;;;;;;22.91;65.42;99770.34;5029566;28;20037;-48
2022/06/28 01:14:07;;;;;;;10.85;9.75;;;;;;;22.89;65.59;99781.06;5030506;28;20099;-50
2022/06/28 01:16:59;;;;;;;11.30;10.07;;;;;;;22.88;65.61;99773.22;5029457;28;20183;-53
2022/06/28 01:19:45;;;;;;;11.85;10.48;;;;;;;22.86;65.79;99773.38;5029845;28;20048;-53
2022/06/28 01:22:43;;;;;;;12.45;10.93;;;;;;;22.79;65.73;99772.19;5012771;28;20525;-51
2022/06/28 01:25:12;;;;;;;11.77;10.57;;;;;;;22.82;66.00;99779.88;5018336;28;20073;-53
2022/06/28 01:27:41;;;;;;;12.32;10.88;;;;;;;22.80;66.08;99774.72;5029996;28;20179;-53
2022/06/28 01:30:08;;;;;;;14.23;10.90;;;;;;;22.80;66.13;99779.19;5021955;28;20527;-50
2022/06/28 01:32:53;;;;;;;11.73;10.48;;;;;;;22.70;66.04;99765.00;5011097;28;20168;-52
2022/06/28 01:35:19;;;;;;;16.50;10.25;;;;;;;22.78;66.11;99783.78;5021914;28;20469;-52
2022/06/28 01:37:49;;;;;;;13.30;10.23;;;;;;;22.75;66.18;99784.03;5020778;28;20434;-52
2022/06/28 01:40:16;;;;;;;15.52;9.63;;;;;;;22.75;66.32;99786.69;5009714;28;20034;-51
2022/06/28 01:42:42;;;;;;;14.43;10.15;;;;;;;22.73;66.16;99791.25;5009533;28;20049;-52
2022/06/28 01:45:09;;;;;;;14.77;10.60;;;;;;;22.73;66.36;99789.47;4996997;28;20516;-53
2022/06/28 01:47:38;;;;;;;10.88;9.77;;;;;;;22.73;66.36;99796.56;5003989;28;20072;-50
2022/06/28 01:50:15;;;;;;;14.27;9.90;;;;;;;22.72;66.24;99793.06;5027352;28;20116;-52
2022/06/28 01:52:45;;;;;;;11.35;10.05;;;;;;;22.71;66.12;99791.41;5029041;28;20045;-51
2022/06/28 01:55:29;;;;;;;12.35;9.98;;;;;;;22.72;66.22;99800.19;5012507;28;20054;-50
2022/06/28 01:57:56;;;;;;;10.95;9.77;;;;;;;22.71;66.38;99795.88;4992987;28;20038;-52
2022/06/28 02:00:24;;;;;;;11.32;10.15;;;;;;;22.72;66.56;99795.72;5022240;28;20041;-49
2022/06/28 02:02:52;;;;;;;13.27;9.95;;;;;;;22.71;66.53;99795.88;5017954;28;20105;-52
2022/06/28 02:05:44;;;;;;;11.07;9.98;;;;;;;22.68;66.66;99791.63;5019332;28;20053;-52
2022/06/28 02:08:11;;;;;;;13.05;9.88;;;;;;;22.63;66.74;99793.81;5019294;28;20505;-50
2022/06/28 02:10:59;;;;;;;11.93;10.68;;;;;;;22.72;66.70;99808.13;5012729;28;20045;-53
2022/06/28 02:13:30;;;;;;;14.70;10.45;;;;;;;22.73;66.86;99815.13;5032419;28;20057;-53
2022/06/28 02:15:56;;;;;;;16.27;10.25;;;;;;;22.72;66.91;99806.31;5040092;28;20049;-52
2022/06/28 02:18:22;;;;;;;15.18;10.32;;;;;;;22.71;66.74;99807.31;5022253;28;20045;-51
2022/06/28 02:20:49;;;;;;;13.18;9.75;;;;;;;22.75;66.83;99815.84;5019339;28;20049;-50
2022/06/28 02:23:16;;;;;;;10.95;9.52;;;;;;;22.74;66.85;99816.81;5061885;28;20038;-55
2022/06/28 02:25:41;;;;;;;11.20;9.45;;;;;;;22.68;67.00;99807.53;5016361;28;20620;-53
2022/06/28 02:28:07;;;;;;;13.75;9.93;;;;;;;22.73;66.99;99810.66;5012070;28;20506;-50
2022/06/28 02:30:32;;;;;;;10.80;9.63;;;;;;;22.74;66.99;99822.97;5027035;28;20050;-50
2022/06/28 02:32:58;;;;;;;13.48;10.30;;;;;;;22.74;66.85;99820.31;5028291;28;20135;-54
2022/06/28 02:40:55;;;;;;;12.10;9.68;;;;;;;22.78;66.81;99827.03;4995179;28;20046;-50
2022/06/28 02:43:21;;;;;;;11.88;9.43;;;;;;;22.81;66.62;99828.59;5025123;28;20052;-53
2022/06/28 02:45:47;;;;;;;10.48;9.13;;;;;;;22.83;66.50;99831.09;5017520;28;20522;-53
2022/06/28 02:48:13;;;;;;;10.13;9.10;;;;;;;22.85;66.26;99831.84;5009014;28;20510;-48
2022/06/28 02:50:38;;;;;;;11.77;8.90;;;;;;;22.85;65.74;99837.97;5008722;28;20502;-48
2022/06/28 02:53:05;;;;;;;13.85;9.07;;;;;;;22.90;65.56;99840.25;4994717;28;20034;-51
2022/06/28 02:55:31;;;;;;;13.65;9.38;;;;;;;22.93;65.38;99843.47;5024081;28;20045;-50
2022/06/28 02:57:57;;;;;;;12.77;9.75;;;;;;;22.96;65.23;99850.34;5029440;28;20433;-47
2022/06/28 03:00:23;;;;;;;13.70;9.23;;;;;;;23.01;64.98;99849.00;5011595;28;20521;-48
2022/06/28 03:02:49;;;;;;;9.85;8.88;;;;;;;23.05;64.96;99847.78;5013695;28;20057;-53
2022/06/28 03:05:18;;;;;;;10.43;8.93;;;;;;;23.04;65.01;99845.25;5043485;28;20433;-51
2022/06/28 03:07:45;;;;;;;12.13;9.00;;;;;;;22.96;65.11;99834.44;5016898;28;20574;-52
2022/06/28 03:10:11;;;;;;;11.18;8.80;;;;;;;23.07;64.60;99845.00;5028270;28;20091;-53
2022/06/28 03:12:37;;;;;;;13.27;8.82;;;;;;;23.14;64.29;99839.03;5029183;28;20119;-52
2022/06/28 03:15:04;;;;;;;9.60;8.38;;;;;;;23.22;63.73;99839.25;5016335;28;20502;-50
2022/06/28 03:17:31;;;;;;;15.98;9.32;;;;;;;23.31;63.52;99850.03;5009282;28;20045;-50
2022/06/28 03:19:57;;;;;;;10.98;9.20;;;;;;;23.37;63.43;99850.38;5015613;28;20064;-53
2022/06/28 03:22:22;;;;;;;11.13;8.45;;;;;;;23.42;63.44;99847.34;5053993;28;20573;-52
2022/06/28 03:24:48;;;;;;;12.15;9.45;;;;;;;23.49;63.21;99853.84;5028581;28;20136;-51
2022/06/28 03:27:15;;;;;;;12.15;9.73;;;;;;;23.62;62.95;99854.47;5031707;28;20041;-54
2022/06/28 03:29:41;;;;;;;11.13;9.02;;;;;;;23.71;62.48;99858.97;5019800;28;20049;-52
2022/06/28 03:32:10;;;;;;;15.35;10.00;;;;;;;23.76;62.38;99867.38;5019325;28;20126;-54
2022/06/28 03:34:36;;;;;;;13.35;8.90;;;;;;;23.75;62.35;99857.78;5026880;28;20478;-52
2022/06/28 03:37:03;;;;;;;11.82;10.05;;;;;;;23.74;62.31;99864.03;5034488;28;20419;-52
2022/06/28 03:39:41;;;;;;;10.85;8.82;;;;;;;23.69;62.38;99863.59;5027854;28;20072;-53
2022/06/28 03:42:07;;;;;;;10.93;9.77;;;;;;;23.66;62.40;99855.06;5028126;28;20042;-54
2022/06/28 03:44:35;;;;;;;11.68;8.63;;;;;;;23.64;62.49;99845.41;5021456;28;20607;-49
2022/06/28 03:47:03;;;;;;;13.15;9.68;;;;;;;23.63;62.54;99853.50;5045973;28;20045;-50
2022/06/28 03:49:49;;;;;;;13.23;8.93;;;;;;;23.63;62.54;99854.34;5032113;28;20064;-52
2022/06/28 03:52:33;;;;;;;11.07;8.55;;;;;;;23.65;62.31;99851.56;5029501;28;20048;-53
2022/06/28 03:55:20;;;;;;;12.35;8.52;;;;;;;23.66;62.40;99860.38;5027807;28;20705;-53
2022/06/28 03:57:48;;;;;;;10.98;8.70;;;;;;;23.66;62.12;99852.41;5031236;28;20041;-53
2022/06/28 04:00:15;;;;;;;12.90;9.65;;;;;;;23.66;61.71;99861.19;5029389;28;20406;-52
2022/06/28 04:02:47;;;;;;;15.10;8.93;;;;;;;23.68;61.48;99858.41;5039504;28;20053;-52
2022/06/28 04:05:35;;;;;;;12.35;8.45;;;;;;;23.71;61.37;99863.47;5015390;28;20398;-55
2022/06/28 04:08:03;;;;;;;10.50;7.85;;;;;;;23.65;61.44;99854.22;5020594;28;20041;-50
2022/06/28 04:10:38;;;;;;;12.82;8.80;;;;;;;23.76;61.31;99863.91;5016583;28;20104;-52
2022/06/28 04:13:12;;;;;;;14.82;9.68;;;;;;;23.76;61.33;99878.00;5024461;28;20037;-48
2022/06/28 04:15:38;;;;;;;10.63;8.82;;;;;;;23.73;61.25;99866.81;5014028;28;20061;-52
2022/06/28 04:18:08;;;;;;;14.60;8.20;;;;;;;23.77;61.25;99879.69;5030476;28;20064;-50
2022/06/28 04:20:41;;;;;;;9.48;8.52;;;;;;;23.79;60.94;99877.75;5029767;28;20068;-52
2022/06/28 04:23:07;;;;;;;12.40;9.68;;;;;;;23.83;60.88;99884.50;5017565;28;20514;-52
2022/06/28 04:25:35;;;;;;;15.82;9.60;;;;;;;23.87;60.68;99877.94;5011910;28;20548;-52
2022/06/28 04:28:11;;;;;;;11.90;9.38;;;;;;;23.91;60.37;99890.00;5017873;28;20045;-48
2022/06/28 04:30:42;;;;;;;11.43;9.15;;;;;;;23.93;60.33;99879.22;5028434;28;20041;-54
2022/06/28 04:33:08;;;;;;;10.52;8.05;;;;;;;23.96;60.28;99892.25;5028931;28;20402;-53
2022/06/28 04:35:37;;;;;;;12.00;9.10;;;;;;;24.03;59.94;99893.38;5022475;28;20041;-56
2022/06/28 04:38:04;;;;;;;13.77;8.27;;;;;;;24.23;59.56;99891.69;4978628;28;20104;-50
2022/06/28 04:40:42;;;;;;;11.32;9.30;;;;;;;24.35;58.79;99885.28;5024183;28;20128;-55
2022/06/28 04:43:29;;;;;;;13.13;8.73;;;;;;;24.45;58.17;99888.81;5021942;28;20050;-49
2022/06/28 04:45:56;;;;;;;10.50;7.33;;;;;;;24.42;57.79;99883.78;5010520;28;20045;-51
2022/06/28 04:48:25;;;;;;;11.65;9.05;;;;;;;24.37;57.74;99889.50;5012420;28;20281;-51
2022/06/28 04:50:51;;;;;;;13.00;8.73;;;;;;;24.36;58.04;99894.94;5031125;28;20052;-52
2022/06/28 04:53:19;;;;;;;11.98;8.45;;;;;;;24.27;58.04;99879.81;5005912;28;20458;-50
2022/06/28 04:55:49;;;;;;;11.38;8.13;;;;;;;24.35;58.10;99896.75;5011616;28;20041;-52
2022/06/28 04:58:16;;;;;;;13.18;8.70;;;;;;;24.36;58.04;99898.44;5010223;28;20430;-52
2022/06/28 05:00:42;;;;;;;13.05;8.80;;;;;;;24.34;58.19;99891.56;5010345;28;20041;-51
2022/06/28 05:03:13;;;;;;;17.10;8.40;;;;;;;24.48;57.97;99896.53;5017995;28;20068;-53
2022/06/28 05:05:59;;;;;;;13.85;9.75;;;;;;;24.62;57.24;99890.81;5029152;28;20042;-53
2022/06/28 05:08:25;;;;;;;18.33;8.27;;;;;;;24.79;56.63;99895.47;5030740;28;20045;-52
2022/06/28 05:11:01;;;;;;;13.43;8.32;;;;;;;24.86;55.71;99898.44;5012295;28;20045;-53
2022/06/28 05:13:39;;;;;;;10.10;7.57;;;;;;;24.94;55.42;99901.25;5013566;28;20129;-53
2022/06/28 05:16:09;;;;;;;13.02;7.40;;;;;;;24.95;55.32;99887.00;5010916;28;20065;-50
2022/06/28 05:18:34;;;;;;;11.43;8.02;;;;;;;25.10;55.28;99882.94;5011141;28;20088;-50
2022/06/28 05:21:03;;;;;;;14.95;7.68;;;;;;;25.38;54.82;99899.03;5027297;28;20045;-54
2022/06/28 05:23:31;;;;;;;10.60;7.30;;;;;;;25.55;54.08;99895.63;5021762;28;20457;-53
2022/06/28 05:26:26;;;;;;;11.77;7.72;;;;;;;25.70;53.71;99903.06;5011470;28;20049;-51
2022/06/28 05:29:09;;;;;;;7.63;6.72;;;;;;;25.77;53.56;99906.00;5015895;28;20041;-50
2022/06/28 05:31:35;;;;;;;12.70;6.90;;;;;;;25.86;52.98;99901.59;5029081;28;20128;-54
2022/06/28 05:34:02;;;;;;;7.93;7.00;;;;;;;26.05;52.62;99901.56;5023546;28;20045;-51
2022/06/28 05:36:29;;;;;;;11.07;7.45;;;;;;;26.25;52.11;99911.19;5016519;28;20050;-52
2022/06/28 05:38:56;;;;;;;9.27;6.47;;;;;;;26.44;50.97;99908.44;5011213;28;20045;-54
2022/06/28 05:41:22;;;;;;;9.82;6.97;;;;;;;26.54;51.16;99901.22;5029441;28;20095;-52
2022/06/28 05:43:48;;;;;;;11.70;7.30;;;;;;;26.67;50.40;99910.69;5023238;28;20433;-49
2022/06/28 05:46:13;;;;;;;10.90;7.10;;;;;;;26.74;50.21;99903.78;5026096;28;20123;-52
2022/06/28 05:48:39;;;;;;;9.40;7.28;;;;;;;26.75;50.48;99902.75;5008081;28;20098;-51
2022/06/28 05:51:05;;;;;;;14.88;6.47;;;;;;;26.63;50.24;99904.84;5009224;28;20037;-49
2022/06/28 05:53:31;;;;;;;13.65;7.30;;;;;;;26.55;50.25;99904.72;5015525;28;20104;-52
2022/06/28 05:55:57;;;;;;;7.63;5.93;;;;;;;26.33;49.73;99892.63;5025615;28;20041;-50
2022/06/28 05:58:23;;;;;;;14.32;5.93;;;;;;;26.40;49.37;99915.06;5029119;28;20049;-51
2022/06/28 06:00:49;;;;;;;8.70;5.57;;;;;;;26.34;48.84;99909.47;5028799;28;20116;-53
2022/06/28 06:03:16;;;;;;;15.77;6.00;;;;;;;26.31;49.14;99920.44;5037658;28;20111;-54
2022/06/28 06:05:42;;;;;;;10.55;6.55;;;;;;;26.31;48.86;99917.78;5027418;28;20072;-49
2022/06/28 06:08:09;;;;;;;8.80;6.43;;;;;;;26.30;48.61;99913.41;5024415;28;20104;-53
2022/06/28 06:10:36;;;;;;;6.93;5.32;;;;;;;26.28;48.67;99916.22;5014517;28;20407;-52
2022/06/28 06:13:02;;;;;;;9.85;5.88;;;;;;;26.21;48.24;99898.28;5007591;28;20037;-48
2022/06/28 06:15:28;;;;;;;7.65;5.85;;;;;;;26.33;48.33;99913.09;5015007;28;20087;-53
2022/06/28 06:17:54;;;;;;;10.68;6.13;;;;;;;26.31;48.77;99894.63;5026601;28;20064;-48
2022/06/28 06:20:20;;;;;;;8.70;5.90;;;;;;;26.44;48.14;99899.59;5002720;28;20068;-51
2022/06/28 06:22:47;;;;;;;9.07;5.70;;;;;;;26.49;47.52;99889.31;4992137;28;20574;-50
2022/06/28 06:25:48;;;;;;;12.70;5.43;;;;;;;26.51;47.09;99893.53;5011193;28;20049;-51
2022/06/28 06:28:14;;;;;;;9.93;5.72;;;;;;;26.62;47.08;99899.63;5012970;28;20521;-55
2022/06/28 06:30:41;;;;;;;9.00;5.72;;;;;;;26.67;46.93;99906.19;5010176;28;20045;-55
2022/06/28 06:33:13;;;;;;;10.60;6.03;;;;;;;26.75;46.46;99908.94;5008756;28;20407;-54
2022/06/28 06:36:14;;;;;;;7.95;5.78;;;;;;;26.87;46.49;99906.94;5019808;28;20045;-52
2022/06/28 06:38:41;;;;;;;8.23;5.72;;;;;;;27.03;46.52;99904.44;5023066;28;20144;-50
2022/06/28 06:41:07;;;;;;;6.05;5.45;;;;;;;27.26;45.52;99907.50;5023457;28;20120;-51
2022/06/28 06:43:35;;;;;;;15.23;5.70;;;;;;;27.55;44.62;99916.09;5004810;28;20041;-52
2022/06/28 06:46:07;;;;;;;8.45;5.15;;;;;;;28.16;43.38;99910.66;5021223;28;20057;-52
2022/06/28 06:48:33;;;;;;;9.98;5.40;;;;;;;28.86;41.42;99911.28;5013889;28;20045;-53
2022/06/28 06:50:58;;;;;;;10.25;5.35;;;;;;;29.70;39.77;99905.66;5010122;28;20510;-52
2022/06/28 06:53:24;;;;;;;6.38;4.65;;;;;;;30.73;37.32;99918.09;5028186;28;20407;-55
2022/06/28 06:55:51;;;;;;;11.55;5.22;;;;;;;31.61;35.58;99928.47;5022272;28;20038;-52
2022/06/28 06:58:17;;;;;;;11.57;4.90;;;;;;;32.41;33.67;99917.84;5012538;28;20072;-54
2022/06/28 07:00:43;;;;;;;7.55;3.90;;;;;;;33.29;31.67;99914.94;5027930;28;20130;-53
2022/06/28 07:03:08;;;;;;;7.50;4.10;;;;;;;34.13;29.90;99920.38;5032943;28;20553;-53
2022/06/28 07:05:39;;;;;;;9.75;3.70;;;;;;;34.88;28.31;99919.53;5029321;28;20049;-55
2022/06/28 07:08:05;;;;;;;15.35;4.20;;;;;;;35.65;26.96;99936.06;5026762;28;20112;-56
2022/06/28 07:10:38;;;;;;;7.78;3.97;;;;;;;36.32;25.54;99933.13;4998605;28;20041;-56
2022/06/28 07:13:04;;;;;;;6.15;3.60;;;;;;;37.04;24.68;99934.69;5016634;28;20481;-53
2022/06/28 07:15:30;;;;;;;13.43;3.92;;;;;;;37.78;23.67;99936.69;5024590;28;20072;-53
2022/06/28 07:17:56;;;;;;;10.52;3.60;;;;;;;38.54;22.85;99934.44;5013139;28;20049;-54
2022/06/28 07:20:21;;;;;;;7.80;3.63;;;;;;;39.24;21.97;99933.91;5025773;28;20048;-56
2022/06/28 07:22:47;;;;;;;8.77;3.95;;;;;;;40.02;21.69;99944.56;5031443;28;20124;-56
2022/06/28 07:25:18;;;;;;;8.82;3.47;;;;;;;40.46;20.77;99926.75;5031524;28;20045;-56
2022/06/28 07:27:43;;;;;;;7.63;3.53;;;;;;;40.94;20.07;99948.16;5015175;28;20064;-57
2022/06/28 07:30:10;;;;;;;4.93;3.65;;;;;;;41.38;19.60;99932.91;5032892;28;20037;-56
2022/06/28 07:32:36;;;;;;;4.05;3.30;;;;;;;41.74;18.82;99946.06;5032812;28;20041;-56
2022/06/28 07:35:03;;;;;;;7.78;3.75;;;;;;;42.06;18.21;99957.25;5031870;28;20038;-57
2022/06/28 07:37:29;;;;;;;7.53;3.80;;;;;;;42.40;18.05;99952.53;5031979;28;20060;-56
2022/06/28 07:39:55;;;;;;;7.63;5.30;;;;;;;42.84;17.54;99956.09;5031368;28;20064;-57
2022/06/28 07:42:40;;;;;;;4.75;3.78;;;;;;;42.98;17.51;99957.31;5031335;28;20079;-57
2022/06/28 07:45:15;;;;;;;5.82;3.83;;;;;;;42.40;18.12;99952.53;5031568;28;20053;-56
2022/06/28 07:47:42;;;;;;;11.82;4.05;;;;;;;41.56;18.29;99951.78;5031412;28;20041;-57
2022/06/28 07:52:58;;;;;;;12.20;6.45;;;;;;;41.83;17.89;99957.41;5031396;28;20012;-55
2022/06/28 07:55:30;;;;;;;10.32;4.18;;;;;;;41.12;18.66;99953.47;5031501;28;20048;-57
2022/06/28 07:58:16;;;;;;;20.10;13.48;;;;;;;42.25;17.38;99953.13;5031464;28;20068;-57
2022/06/28 08:00:43;;;;;;;10.00;6.80;;;;;;;43.19;16.26;99963.84;5031197;28;20053;-57
2022/06/28 08:03:16;;;;;;;10.32;4.43;;;;;;;43.74;15.45;99968.19;5031034;28;20509;-57
2022/06/28 08:05:43;;;;;;;14.50;8.05;;;;;;;44.21;14.92;99971.81;5030008;28;20080;-55
2022/06/28 08:08:12;;;;;;;3.63;3.33;;;;;;;44.42;14.45;99970.03;5030846;28;20159;-54
2022/06/28 08:10:38;;;;;;;6.53;3.20;;;;;;;44.50;14.20;99980.47;5027101;28;20038;-56
2022/06/28 08:13:07;;;;;;;6.15;2.90;;;;;;;44.72;14.15;99978.41;5020552;28;20517;-57
2022/06/28 08:15:34;;;;;;;7.68;3.58;;;;;;;44.99;13.92;99983.69;5003483;28;20752;-57
2022/06/28 08:18:00;;;;;;;13.90;4.85;;;;;;;45.23;13.40;99991.44;5002491;28;20095;-57
2022/06/28 08:20:31;;;;;;;8.10;3.40;;;;;;;45.33;13.21;99970.31;5021454;28;20067;-56
2022/06/28 08:22:57;;;;;;;6.22;3.17;;;;;;;45.56;13.36;99990.97;5019160;28;20041;-57
2022/06/28 08:25:23;;;;;;;7.60;4.40;;;;;;;45.66;13.01;99987.38;5030769;28;20055;-56
2022/06/28 08:27:49;;;;;;;8.75;4.72;;;;;;;45.95;13.23;99991.25;5021158;28;20123;-56
2022/06/28 08:30:15;;;;;;;4.78;3.38;;;;;;;46.06;12.83;99984.63;5013415;28;20034;-54
2022/06/28 08:32:41;;;;;;;10.27;3.40;;;;;;;46.41;12.61;99994.72;5029982;28;20049;-52
2022/06/28 08:35:07;;;;;;;8.10;3.20;;;;;;;46.49;12.29;99980.34;5030018;28;20037;-53
2022/06/28 08:37:33;;;;;;;6.03;3.15;;;;;;;46.65;12.17;99979.22;5030232;28;20072;-52
2022/06/28 08:39:59;;;;;;;5.38;3.17;;;;;;;46.59;12.70;99982.28;5029680;28;20069;-54
2022/06/28 08:42:27;;;;;;;21.95;12.15;;;;;;;46.61;12.26;99977.31;5029488;28;20037;-48
2022/06/28 08:44:52;;;;;;;7.70;3.92;;;;;;;46.60;12.34;99987.50;5031069;28;20110;-53
2022/06/28 08:47:20;;;;;;;4.65;3.42;;;;;;;46.55;11.84;99981.19;5029926;28;20033;-48
2022/06/28 08:49:50;;;;;;;4.45;2.88;;;;;;;46.55;11.88;99983.94;5029176;28;20049;-46
2022/06/28 08:52:17;;;;;;;3.60;3.10;;;;;;;46.61;11.90;99982.81;5031071;28;20237;-45
2022/06/28 08:54:43;;;;;;;9.35;4.40;;;;;;;46.72;12.02;99985.25;5029824;28;20044;-48
2022/06/28 08:57:08;;;;;;;4.45;3.28;;;;;;;46.63;11.68;99999.88;5030545;28;20041;-48
2022/06/28 08:59:35;;;;;;;6.57;3.20;;;;;;;46.31;11.88;99979.06;5028243;28;20583;-47
2022/06/28 09:02:05;;;;;;;3.72;2.92;;;;;;;46.43;11.66;99975.19;5029378;28;20055;-45
2022/06/28 09:04:32;;;;;;;4.07;3.05;;;;;;;46.55;11.80;99984.78;5029871;28;20044;-46
2022/06/28 09:07:00;;;;;;;7.63;2.85;;;;;;;46.70;11.69;99989.38;5028836;28;20060;-48
2022/06/28 09:09:26;;;;;;;4.65;3.00;;;;;;;46.85;11.81;99978.28;5030444;28;20135;-46
2022/06/28 09:11:53;;;;;;;8.45;3.47;;;;;;;46.82;11.62;99976.09;5030498;28;20041;-48
2022/06/28 09:14:21;;;;;;;;;;;;;;;46.62;11.91;99974.28;5035592;28;20533;-47
2022/06/28 09:16:47;;;;;;;8.82;3.97;;;;;;;46.49;12.23;99963.84;5012260;28;20393;-46
2022/06/28 09:19:13;;;;;;;11.15;5.22;;;;;;;46.55;12.63;99972.94;5058364;28;20529;-50
2022/06/28 09:21:43;;;;;;;6.10;2.97;;;;;;;46.52;12.61;99984.50;5038052;28;20046;-47
2022/06/28 09:24:09;;;;;;;7.50;3.63;;;;;;;46.63;12.36;99983.38;5056833;28;20049;-44
2022/06/28 09:26:35;;;;;;;4.88;3.20;;;;;;;46.55;11.88;99981.19;5030505;28;20033;-47
2022/06/28 09:29:01;;;;;;;8.68;3.47;;;;;;;46.30;12.02;99969.16;5030224;28;20477;-45
2022/06/28 09:31:29;;;;;;;4.70;3.00;;;;;;;46.39;11.84;99977.66;5028942;28;20048;-45
2022/06/28 09:34:01;;;;;;;3.65;2.65;;;;;;;46.27;12.06;99979.91;5030137;28;20033;-48
2022/06/28 09:36:28;;;;;;;4.60;3.03;;;;;;;46.19;12.13;99953.81;5030004;28;20041;-47
2022/06/28 09:38:56;;;;;;;5.68;2.90;;;;;;;46.43;11.87;99980.69;5027396;28;20076;-49
2022/06/28 09:41:26;;;;;;;6.82;3.25;;;;;;;46.65;11.97;99981.16;5026638;28;20589;-47
2022/06/28 09:43:54;;;;;;;6.38;2.80;;;;;;;46.63;11.70;99980.63;5026720;28;20507;-48
2022/06/28 09:46:23;;;;;;;4.63;2.80;;;;;;;46.56;11.33;99980.09;5027900;28;20037;-50
2022/06/28 09:48:49;;;;;;;3.63;2.72;;;;;;;46.41;10.90;99972.69;5028991;28;20057;-47
2022/06/28 09:51:22;;;;;;;8.80;7.32;;;;;;;46.39;11.38;99972.16;5029144;28;20041;-48
2022/06/28 09:53:52;;;;;;;28.65;23.70;;;;;;;46.51;11.31;99969.09;5030138;28;20045;-44
2022/06/28 09:56:18;;;;;;;3.95;2.70;;;;;;;46.47;10.65;99976.25;5061515;28;20041;-47
2022/06/28 09:58:44;;;;;;;7.50;5.40;;;;;;;46.32;11.18;99977.16;5028700;28;20041;-46
2022/06/28 10:01:09;;;;;;;23.95;7.97;;;;;;;46.25;11.43;99968.38;5028913;28;20075;-48
2022/06/28 10:03:36;;;;;;;4.82;2.83;;;;;;;46.50;11.27;99970.19;5028364;28;20056;-48
2022/06/28 10:06:02;;;;;;;9.20;3.22;;;;;;;46.45;10.94;99976.53;5045471;28;20048;-47
2022/06/28 10:08:28;;;;;;;3.08;2.85;;;;;;;46.24;11.12;99962.03;5028819;28;20136;-47
2022/06/28 10:10:54;;;;;;;13.02;4.90;;;;;;;45.99;11.47;99966.75;5029030;28;20045;-47
2022/06/28 10:16:10;;;;;;;3.00;2.70;;;;;;;46.19;11.44;99962.06;5028475;28;20087;-49
2022/06/28 10:18:35;;;;;;;26.05;11.23;;;;;;;46.27;11.60;99977.16;5019720;28;20096;-45
2022/06/28 10:21:01;;;;;;;5.97;3.58;;;;;;;46.40;11.23;99965.56;5026840;28;20045;-48
2022/06/28 10:23:33;;;;;;;6.60;5.20;;;;;;;46.40;11.44;99975.72;5027551;28;20056;-49
2022/06/28 10:26:14;;;;;;;4.32;3.03;;;;;;;46.55;10.36;99975.69;5038494;28;20210;-47
2022/06/28 10:29:00;;;;;;;6.15;3.65;;;;;;;46.43;10.00;99961.44;5020308;28;20592;-48
2022/06/28 10:31:26;;;;;;;12.35;10.07;;;;;;;46.47;10.87;99962.50;5020630;28;20045;-47
2022/06/28 10:33:56;;;;;;;8.80;5.40;;;;;;;46.57;11.01;99960.56;5025712;28;20026;-49
2022/06/28 10:36:25;;;;;;;4.10;2.90;;;;;;;46.48;10.96;99959.44;5061457;28;20130;-46
2022/06/28 10:39:08;;;;;;;4.70;3.47;;;;;;;46.43;10.84;99964.19;5028506;28;20099;-45
2022/06/28 10:41:51;;;;;;;8.38;2.70;;;;;;;46.21;10.94;99954.34;5014333;28;20060;-50
2022/06/28 10:44:22;;;;;;;8.95;3.20;;;;;;;46.05;10.82;99958.22;5021871;28;20087;-51
2022/06/28 10:47:09;;;;;;;13.38;3.00;;;;;;;46.02;10.78;99944.19;5011365;28;20044;-48
2022/06/28 10:49:49;;;;;;;;;;;;;;;45.93;11.08;99954.94;5026638;28;20076;-49
2022/06/28 10:52:16;;;;;;;6.00;5.00;;;;;;;45.85;10.76;99947.28;5024248;28;19917;-49
2022/06/28 10:54:51;;;;;;;4.88;4.40;;;;;;;45.90;10.79;99952.75;5020687;28;20088;-48
2022/06/28 10:57:33;;;;;;;4.32;3.05;;;;;;;45.83;10.76;99952.22;5008818;28;20061;-49
2022/06/28 11:00:09;;;;;;;5.20;2.88;;;;;;;45.65;10.70;99952.75;5026632;28;20037;-49
2022/06/28 11:02:59;;;;;;;5.88;3.58;;;;;;;45.61;10.95;99943.41;5021132;28;20085;-46
2022/06/28 11:05:51;;;;;;;6.35;2.50;;;;;;;45.68;10.96;99939.31;5026388;28;20052;-49
2022/06/28 11:08:38;;;;;;;5.68;2.58;;;;;;;45.62;10.77;99940.41;5026514;28;20045;-49
2022/06/28 11:11:05;;;;;;;4.80;3.15;;;;;;;45.62;10.83;99945.06;5027092;28;20076;-46
2022/06/28 11:13:31;;;;;;;6.30;2.70;;;;;;;45.70;11.20;99944.50;5029491;28;20038;-48
2022/06/28 11:15:57;;;;;;;3.80;2.53;;;;;;;45.69;11.20;99929.97;5029359;28;20558;-49
2022/06/28 11:18:23;;;;;;;5.20;2.55;;;;;;;45.92;10.70;99940.38;5028181;28;20191;-49
2022/06/28 11:20:50;;;;;;;;;;;;;;;45.96;10.59;99938.69;5028396;28;20090;-47
2022/06/28 11:23:27;;;;;;;7.00;2.95;;;;;;;45.78;10.45;99930.22;5027664;28;20422;-47
2022/06/28 11:28:59;;;;;;;9.50;3.17;;;;;;;46.12;10.55;99955.97;5027420;28;20045;-46
2022/06/28 11:31:25;;;;;;;9.48;5.70;;;;;;;46.07;10.80;99952.41;5044631;28;20041;-50
2022/06/28 11:33:51;;;;;;;10.30;4.97;;;;;;;46.05;10.81;99951.91;5027673;28;20127;-47
2022/06/28 11:36:34;;;;;;;2.78;2.58;;;;;;;46.03;10.60;99956.84;5044804;28;20468;-47
2022/06/28 11:39:18;;;;;;;4.13;2.58;;;;;;;45.91;10.12;99946.13;5028189;28;20128;-49
2022/06/28 11:41:54;;;;;;;6.30;5.13;;;;;;;45.93;10.64;99949.44;5031637;28;20040;-51
2022/06/28 11:44:21;;;;;;;8.80;4.22;;;;;;;45.82;10.92;99948.63;5032158;28;20075;-47
2022/06/28 11:46:49;;;;;;;8.63;6.28;;;;;;;45.84;10.59;99940.94;5030252;28;20041;-46
2022/06/28 11:49:25;;;;;;;8.85;4.40;;;;;;;45.84;11.11;99943.69;5029372;28;20045;-50
2022/06/28 11:51:52;;;;;;;10.55;9.55;;;;;;;45.96;11.10;99944.19;5031913;28;20099;-46
2022/06/28 11:54:20;;;;;;;5.72;5.18;;;;;;;45.81;10.99;99938.75;5032173;28;20096;-50
2022/06/28 11:56:47;;;;;;;3.40;3.20;;;;;;;45.78;11.32;99947.53;5029041;28;20037;-46